Decoded Metar for WBKW (TAWAU in MALAYSIA) (IATA:TWU) | Meteo·Mobile Aviation Weather
aviador You're here:

WBKW Decoded Metar

TAWAU in MALAYSIA
Report Time2019-01-19 16:00:00
UTC Time2019-01-19 16:12:57
Flight Rules vfr VFR
WindVRB at 02 kt
Visibility9999 m
Phenomena:N/A
Clouds:Few 017 Hf
Scattered 140 Hf
Broken 300 Hf
Expected CloudBase > 1,200 ft AGL from Temp-Dew spread
Ceiling30,000 ft
Temp26°C (ISA +11)
Dew Point23°C (84% RH)
QNH1010 hPa
Density Alt1,821 ft
Elevation66 ft
Report Wrong Elevation
Raw Report
METAR WBKW 191600Z VRB02KT 9999 FEW017 SCT140 BKN300 26/23 Q1010=####018000074####
SAOM32 OOMS 191600 RRA

Extra information for WBKW:More info

Metar Taf Metar & Taf Last 4 Metars F.Rules Stats Wind Profile Meteogram Temp Stats Airport Information Weather charts Add Link Nearby VenuesMetar ALERT Operation Metar Decoded Social comments